Arian — V2FM3 — position and weather

sailwx.info

Track history (hours):
 
Tides and Currents Weather Stations Pressure Air Temp Water Temp Dewpoint Dewpoint Depression Visibility Wind Speed Wind Dir Waves Ship Positions

Arian

Last reported at 2018-Feb-20 03:26 UTC. Time now 2018-Feb-20 13:37 UTC.
Position N 14°09' W 061°03'.

Length 161 m; draft 8.3 m.

Type: Ship (hazmat cat A). MMSI: 305720000.

Date/timePositionNaut miles runAvg speedWind from/ knotsBaromVisibWave heightAir tempDewpointWater temp
2018-Feb-20 03:26N 14°09' W 061°03'715.6
2018-Feb-20 03:01N 14°15' W 061°04'915.7
2018-Feb-20 02:25N 14°24' W 061°06'1014.6
2018-Feb-20 01:46N 14°34' W 061°07'2 9.8
2018-Feb-20 01:30N 14°35' W 061°05'1 3.0
2018-Feb-20 01:00N 14°36' W 061°03'0 0.0
2018-Feb-20 00:26N 14°36' W 061°03'0 0.0
2018-Feb-19 23:59N 14°36' W 061°03'0 0.0
2018-Feb-19 23:26N 14°36' W 061°03'0 0.0
2018-Feb-19 22:59N 14°36' W 061°03'0 0.0
2018-Feb-19 22:29N 14°36' W 061°03'0 0.0
2018-Feb-19 21:47N 14°36' W 061°03'0 0.0
2018-Feb-19 21:17N 14°36' W 061°03'0 0.0
2018-Feb-19 20:05N 14°36' W 061°03'0 0.0
2018-Feb-19 19:59N 14°36' W 061°03'0 0.0
2018-Feb-19 19:23N 14°36' W 061°03'0 0.0
2018-Feb-19 18:56N 14°36' W 061°03'0 0.0
2018-Feb-19 18:29N 14°36' W 061°03'0 0.0
2018-Feb-19 17:53N 14°36' W 061°03'0 0.0
2018-Feb-19 17:25N 14°36' W 061°03'1 2.6
2018-Feb-19 17:00N 14°35' W 061°04'5 8.4
2018-Feb-19 16:22N 14°33' W 061°09'410.0
2018-Feb-19 15:58N 14°31' W 061°13'510.1
2018-Feb-19 15:26N 14°26' W 061°14'  
2018-Feb-10 17:05N 25°27' W 079°38'114.0
2018-Feb-10 17:00N 25°28' W 079°38'713.8
2018-Feb-10 16:30N 25°35' W 079°39'510.6
2018-Feb-10 16:00N 25°40' W 079°40'5 9.5
2018-Feb-10 15:30N 25°44' W 079°42'510.9
2018-Feb-10 15:00N 25°45' W 079°48'713.9
2018-Feb-10 14:30N 25°46' W 079°56'714.7
2018-Feb-10 14:00N 25°46' W 080°04'4 8.3
2018-Feb-10 13:31N 25°46' W 080°08'1 2.7
2018-Feb-10 13:00N 25°46' W 080°10'0 0.8
2018-Feb-10 12:30N 25°46' W 080°09'0 0.0
2018-Feb-10 11:58N 25°46' W 080°09'0 0.0
2018-Feb-10 11:28N 25°46' W 080°09'0 0.0
2018-Feb-10 10:58N 25°46' W 080°09'0 0.0
2018-Feb-10 10:25N 25°46' W 080°09'0 0.0
2018-Feb-10 09:49N 25°46' W 080°09'0 0.0
2018-Feb-10 09:28N 25°46' W 080°09'0 0.0
2018-Feb-10 08:55N 25°46' W 080°09'0 0.0
2018-Feb-10 08:28N 25°46' W 080°09'0 0.0
2018-Feb-10 07:58N 25°46' W 080°09'0 0.0
2018-Feb-10 07:28N 25°46' W 080°09'0 0.0
2018-Feb-10 06:58N 25°46' W 080°09'0 0.0
2018-Feb-10 06:28N 25°46' W 080°09'0 0.0
2018-Feb-10 05:58N 25°46' W 080°09'0 0.0
2018-Feb-10 05:28N 25°46' W 080°09'0 0.0
2018-Feb-10 04:55N 25°46' W 080°09'0 0.0
2018-Feb-10 04:25N 25°46' W 080°09'0 0.0
2018-Feb-10 03:58N 25°46' W 080°09'0 0.0
2018-Feb-10 03:28N 25°46' W 080°09'  
Track history (hours):
 
Tides and Currents Weather Stations Pressure Air Temp Water Temp Dewpoint Dewpoint Depression Visibility Wind Speed Wind Dir Waves Ship Positions

Arian

Last reported at 2018-Feb-20 03:26 UTC. Time now 2018-Feb-20 13:37 UTC.
Position N 14°09' W 061°03'.

Length 161 m; draft 8.3 m.

Type: Ship (hazmat cat A). MMSI: 305720000.

Date/timePositionNaut miles runAvg speedWind from/ knotsBaromVisibWave heightAir tempDewpointWater temp
2018-Feb-20 03:26N 14°09' W 061°03'715.6
2018-Feb-20 03:01N 14°15' W 061°04'915.7
2018-Feb-20 02:25N 14°24' W 061°06'1014.6
2018-Feb-20 01:46N 14°34' W 061°07'2 9.8
2018-Feb-20 01:30N 14°35' W 061°05'1 3.0
2018-Feb-20 01:00N 14°36' W 061°03'0 0.0
2018-Feb-20 00:26N 14°36' W 061°03'0 0.0
2018-Feb-19 23:59N 14°36' W 061°03'0 0.0
2018-Feb-19 23:26N 14°36' W 061°03'0 0.0
2018-Feb-19 22:59N 14°36' W 061°03'0 0.0
2018-Feb-19 22:29N 14°36' W 061°03'0 0.0
2018-Feb-19 21:47N 14°36' W 061°03'0 0.0
2018-Feb-19 21:17N 14°36' W 061°03'0 0.0
2018-Feb-19 20:05N 14°36' W 061°03'0 0.0
2018-Feb-19 19:59N 14°36' W 061°03'0 0.0
2018-Feb-19 19:23N 14°36' W 061°03'0 0.0
2018-Feb-19 18:56N 14°36' W 061°03'0 0.0
2018-Feb-19 18:29N 14°36' W 061°03'0 0.0
2018-Feb-19 17:53N 14°36' W 061°03'0 0.0
2018-Feb-19 17:25N 14°36' W 061°03'1 2.6
2018-Feb-19 17:00N 14°35' W 061°04'5 8.4
2018-Feb-19 16:22N 14°33' W 061°09'410.0
2018-Feb-19 15:58N 14°31' W 061°13'510.1
2018-Feb-19 15:26N 14°26' W 061°14'  
2018-Feb-10 17:05N 25°27' W 079°38'114.0
2018-Feb-10 17:00N 25°28' W 079°38'713.8
2018-Feb-10 16:30N 25°35' W 079°39'510.6
2018-Feb-10 16:00N 25°40' W 079°40'5 9.5
2018-Feb-10 15:30N 25°44' W 079°42'510.9
2018-Feb-10 15:00N 25°45' W 079°48'713.9
2018-Feb-10 14:30N 25°46' W 079°56'714.7
2018-Feb-10 14:00N 25°46' W 080°04'4 8.3
2018-Feb-10 13:31N 25°46' W 080°08'1 2.7
2018-Feb-10 13:00N 25°46' W 080°10'0 0.8
2018-Feb-10 12:30N 25°46' W 080°09'0 0.0
2018-Feb-10 11:58N 25°46' W 080°09'0 0.0
2018-Feb-10 11:28N 25°46' W 080°09'0 0.0
2018-Feb-10 10:58N 25°46' W 080°09'0 0.0
2018-Feb-10 10:25N 25°46' W 080°09'0 0.0
2018-Feb-10 09:49N 25°46' W 080°09'0 0.0
2018-Feb-10 09:28N 25°46' W 080°09'0 0.0
2018-Feb-10 08:55N 25°46' W 080°09'0 0.0
2018-Feb-10 08:28N 25°46' W 080°09'0 0.0
2018-Feb-10 07:58N 25°46' W 080°09'0 0.0
2018-Feb-10 07:28N 25°46' W 080°09'0 0.0
2018-Feb-10 06:58N 25°46' W 080°09'0 0.0
2018-Feb-10 06:28N 25°46' W 080°09'0 0.0
2018-Feb-10 05:58N 25°46' W 080°09'0 0.0
2018-Feb-10 05:28N 25°46' W 080°09'0 0.0
2018-Feb-10 04:55N 25°46' W 080°09'0 0.0
2018-Feb-10 04:25N 25°46' W 080°09'0 0.0
2018-Feb-10 03:58N 25°46' W 080°09'0 0.0
2018-Feb-10 03:28N 25°46' W 080°09'  

Dump ship's entire track history